createdAt,value
2022-12-03T00:01:25.893Z,98342.84
2022-12-03T00:03:55.679Z,98344.50
2022-12-03T00:06:26.332Z,98347.50
2022-12-03T00:08:58.104Z,98343.72
2022-12-03T00:11:29.693Z,98346.72
2022-12-03T00:13:58.890Z,98351.97
2022-12-03T00:16:28.543Z,98349.97
2022-12-03T00:18:57.677Z,98337.16
2022-12-03T00:21:26.890Z,98344.25
2022-12-03T00:23:56.626Z,98335.41
2022-12-03T00:26:27.500Z,98340.72
2022-12-03T00:28:57.733Z,98341.28
2022-12-03T00:31:27.034Z,98333.91
2022-12-03T00:33:56.266Z,98332.53
2022-12-03T00:36:26.322Z,98332.78
2022-12-03T00:38:55.403Z,98326.97
2022-12-03T00:41:25.333Z,98319.06
2022-12-03T00:43:58.250Z,98331.16
2022-12-03T00:46:27.843Z,98324.38
2022-12-03T00:48:57.895Z,98319.22
2022-12-03T00:51:27.472Z,98328.72
2022-12-03T00:53:56.189Z,98326.97
2022-12-03T00:56:25.625Z,98324.38
2022-12-03T00:58:56.965Z,98327.91
2022-12-03T01:01:27.499Z,98322.06
2022-12-03T01:03:57.563Z,98333.44
2022-12-03T01:06:26.559Z,98336.00
2022-12-03T01:08:58.013Z,98330.75
2022-12-03T01:11:39.107Z,98334.53
2022-12-03T01:14:12.864Z,98337.09
2022-12-03T01:16:42.233Z,98340.63
2022-12-03T01:19:16.078Z,98341.44
2022-12-03T01:21:45.989Z,98342.00
2022-12-03T01:24:15.333Z,98342.00
2022-12-03T01:26:44.977Z,98339.88
2022-12-03T01:29:16.699Z,98342.19
2022-12-03T01:32:04.000Z,98342.28
2022-12-03T01:34:33.550Z,98341.22
2022-12-03T01:37:03.017Z,98348.84
2022-12-03T01:39:33.038Z,98345.88
2022-12-03T01:42:02.516Z,98352.91
2022-12-03T01:44:35.737Z,98352.91
2022-12-03T01:47:07.644Z,98357.81
2022-12-03T01:49:45.206Z,98359.47
2022-12-03T01:52:17.530Z,98359.19
2022-12-03T01:54:51.668Z,98362.19
2022-12-03T01:57:26.048Z,98363.94
2022-12-03T02:00:01.155Z,98351.31
2022-12-03T02:02:33.320Z,98353.19
2022-12-03T02:05:07.809Z,98365.16
2022-12-03T02:07:36.404Z,98361.63
2022-12-03T02:10:10.282Z,98360.91
2022-12-03T02:12:45.213Z,98362.81
2022-12-03T02:15:15.703Z,98366.09
2022-12-03T02:17:45.995Z,98371.25
2022-12-03T02:20:16.547Z,98368.25
2022-12-03T02:22:59.289Z,98368.72
2022-12-03T02:25:33.520Z,98373.78
2022-12-03T02:28:05.083Z,98370.25
2022-12-03T02:30:36.187Z,98365.09
2022-12-03T02:33:06.598Z,98365.09
2022-12-03T02:35:39.320Z,98363.34
2022-12-03T02:38:15.059Z,98359.38
2022-12-03T02:40:48.577Z,98367.75
2022-12-03T02:43:19.036Z,98356.34
2022-12-03T02:45:52.245Z,98364.81
2022-12-03T02:48:26.282Z,98361.97
2022-12-03T02:50:58.762Z,98365.78
2022-12-03T02:53:32.177Z,98361.44
2022-12-03T02:56:05.502Z,98363.50
2022-12-03T02:58:35.696Z,98360.91
2022-12-03T03:01:08.396Z,98356.47
2022-12-03T03:03:41.257Z,98355.38
2022-12-03T03:06:11.312Z,98355.50
2022-12-03T03:08:41.898Z,98351.97
2022-12-03T03:11:13.932Z,98353.06
2022-12-03T03:13:44.247Z,98344.75
2022-12-03T03:16:13.808Z,98342.72
2022-12-03T03:18:43.455Z,98348.53
2022-12-03T03:21:13.959Z,98345.28
2022-12-03T03:23:42.980Z,98344.56
2022-12-03T03:26:16.843Z,98344.84
2022-12-03T03:28:51.463Z,98337.91
2022-12-03T03:31:25.804Z,98340.25
2022-12-03T03:33:55.608Z,98343.50
2022-12-03T03:36:25.218Z,98344.84
2022-12-03T03:38:55.181Z,98346.22
2022-12-03T03:41:28.157Z,98350.44
2022-12-03T03:43:58.620Z,98344.47
2022-12-03T03:46:29.821Z,98343.09
2022-12-03T03:49:00.844Z,98332.88
2022-12-03T03:51:31.091Z,98350.13
2022-12-03T03:54:01.173Z,98332.06
2022-12-03T03:56:32.030Z,98328.78
2022-12-03T03:59:02.973Z,98332.63
2022-12-03T04:01:34.332Z,98326.91
2022-12-03T04:04:04.444Z,98325.13
2022-12-03T04:06:34.660Z,98311.81
2022-12-03T04:09:03.795Z,98318.84
2022-12-03T04:11:52.094Z,98316.97
2022-12-03T04:14:22.637Z,98323.38
2022-12-03T04:16:51.644Z,98321.06
2022-12-03T04:19:22.178Z,98325.66
2022-12-03T04:22:24.848Z,98318.38
2022-12-03T04:25:16.470Z,98320.50
2022-12-03T04:28:04.497Z,98315.44
2022-12-03T04:30:34.222Z,98312.75
2022-12-03T04:33:21.607Z,98308.53
2022-12-03T04:35:50.325Z,98311.25
2022-12-03T04:38:19.539Z,98305.28
2022-12-03T04:41:05.436Z,98310.44
2022-12-03T04:44:00.016Z,98306.91
2022-12-03T04:46:30.250Z,98306.47
2022-12-03T04:49:03.882Z,98303.34
2022-12-03T04:51:34.456Z,98308.50
2022-12-03T04:54:04.637Z,98309.06
2022-12-03T04:56:34.950Z,98308.94
2022-12-03T04:59:05.602Z,98318.19
2022-12-03T05:01:35.130Z,98310.69
2022-12-03T05:04:04.224Z,98313.94
2022-12-03T05:06:34.363Z,98312.88
2022-12-03T05:09:04.549Z,98313.44
2022-12-03T05:11:48.709Z,98317.41
2022-12-03T05:14:18.837Z,98315.06
2022-12-03T05:16:48.143Z,98314.81
2022-12-03T05:19:17.968Z,98320.78
2022-12-03T05:21:46.953Z,98312.38
2022-12-03T05:24:17.120Z,98319.97
2022-12-03T05:26:46.278Z,98322.69
2022-12-03T05:29:17.223Z,98322.00
2022-12-03T05:31:47.621Z,98313.56
2022-12-03T05:34:18.608Z,98316.56
2022-12-03T05:36:49.303Z,98316.34
2022-12-03T05:39:18.794Z,98315.63
2022-12-03T05:42:06.505Z,98312.38
2022-12-03T05:44:38.426Z,98322.56
2022-12-03T05:47:07.456Z,98312.88
2022-12-03T05:49:37.285Z,98313.69
2022-12-03T05:52:08.464Z,98314.50
2022-12-03T05:54:38.612Z,98310.44
2022-12-03T05:57:09.273Z,98311.13
2022-12-03T05:59:40.294Z,98311.00
2022-12-03T06:02:09.435Z,98317.66
2022-12-03T06:04:38.376Z,98310.47
2022-12-03T06:07:12.511Z,98305.75
2022-12-03T06:09:43.361Z,98310.91
2022-12-03T06:12:13.525Z,98318.09
2022-12-03T06:14:44.280Z,98309.09
2022-12-03T06:17:13.971Z,98311.94
2022-12-03T06:19:45.021Z,98308.53
2022-12-03T06:22:15.046Z,98310.44
2022-12-03T06:24:45.792Z,98304.19
2022-12-03T06:27:16.236Z,98305.03
2022-12-03T06:29:48.234Z,98307.22
2022-12-03T06:32:18.676Z,98305.69
2022-12-03T06:34:48.408Z,98300.31
2022-12-03T06:37:17.892Z,98295.16
2022-12-03T06:39:47.929Z,98297.72
2022-12-03T06:42:17.566Z,98290.66
2022-12-03T06:44:48.824Z,98287.97
2022-12-03T06:47:19.393Z,98289.28
2022-12-03T06:49:49.587Z,98290.09
2022-12-03T06:52:20.282Z,98283.03
2022-12-03T06:54:50.292Z,98287.13
2022-12-03T06:57:20.236Z,98283.84
2022-12-03T06:59:51.950Z,98285.75
2022-12-03T07:02:22.640Z,98284.00
2022-12-03T07:04:53.365Z,98284.81
2022-12-03T07:07:22.019Z,98286.59
2022-12-03T07:09:51.630Z,98286.44
2022-12-03T07:12:21.290Z,98283.75
2022-12-03T07:14:52.598Z,98292.41
2022-12-03T07:17:21.336Z,98295.69
2022-12-03T07:19:51.503Z,98303.13
2022-12-03T07:22:22.312Z,98305.69
2022-12-03T07:24:52.955Z,98308.53
2022-12-03T07:27:23.253Z,98296.09
2022-12-03T07:29:54.619Z,98308.28
2022-12-03T07:32:24.819Z,98297.72
2022-12-03T07:34:55.307Z,98305.56
2022-12-03T07:37:25.004Z,98302.88
2022-12-03T07:39:55.156Z,98312.38
2022-12-03T07:42:24.886Z,98316.72
2022-12-03T07:44:56.630Z,98312.94
2022-12-03T07:47:26.200Z,98319.16
2022-12-03T07:49:55.487Z,98319.97
2022-12-03T07:52:25.190Z,98321.72
2022-12-03T07:54:55.035Z,98327.34
2022-12-03T07:57:25.068Z,98316.34
2022-12-03T07:59:55.964Z,98317.00
2022-12-03T08:02:26.726Z,98319.03
2022-12-03T08:04:55.972Z,98324.31
2022-12-03T08:07:25.604Z,98322.44
2022-12-03T08:09:57.042Z,98319.16
2022-12-03T08:12:40.405Z,98326.78
2022-12-03T08:15:21.918Z,98324.19
2022-12-03T08:17:58.815Z,98324.66
2022-12-03T08:20:32.864Z,98324.66
2022-12-03T08:23:08.587Z,98311.59
2022-12-03T08:25:38.639Z,98320.41
2022-12-03T08:28:15.806Z,98319.03
2022-12-03T08:30:51.844Z,98316.47
2022-12-03T08:33:31.359Z,98321.72
2022-12-03T08:36:03.124Z,98314.13
2022-12-03T08:38:32.101Z,98318.59
2022-12-03T08:41:01.647Z,98319.28
2022-12-03T08:43:42.481Z,98316.72
2022-12-03T08:46:20.841Z,98323.53
2022-12-03T08:48:50.521Z,98320.50
2022-12-03T08:51:25.410Z,98324.00
2022-12-03T08:54:02.210Z,98319.81
2022-12-03T08:56:37.082Z,98309.16
2022-12-03T08:59:26.020Z,98318.44
2022-12-03T09:01:57.833Z,98308.13
2022-12-03T09:04:33.120Z,98315.03
2022-12-03T09:07:03.267Z,98312.88
2022-12-03T09:09:33.790Z,98310.19
2022-12-03T09:12:03.225Z,98306.09
2022-12-03T09:14:33.158Z,98307.84
2022-12-03T09:17:04.079Z,98305.03
2022-12-03T09:19:33.182Z,98304.34
2022-12-03T09:22:02.469Z,98301.44
2022-12-03T09:24:31.781Z,98301.56
2022-12-03T09:27:01.261Z,98298.19
2022-12-03T09:29:30.990Z,98293.97
2022-12-03T09:32:00.201Z,98299.66
2022-12-03T09:34:31.811Z,98303.91
2022-12-03T09:37:01.821Z,98300.38
2022-12-03T09:39:31.633Z,98306.91
2022-12-03T09:42:00.862Z,98301.31
2022-12-03T09:44:33.713Z,98302.69
2022-12-03T09:47:04.256Z,98305.28
2022-12-03T09:49:37.773Z,98297.66
2022-12-03T09:52:09.012Z,98293.34
2022-12-03T09:54:41.634Z,98292.97
2022-12-03T09:57:15.295Z,98300.97
2022-12-03T09:59:45.117Z,98286.16
2022-12-03T10:02:23.477Z,98283.34
2022-12-03T10:04:56.490Z,98280.38
2022-12-03T10:07:27.714Z,98272.25
2022-12-03T10:09:57.404Z,98277.25
2022-12-03T10:12:26.599Z,98274.94
2022-12-03T10:14:57.611Z,98273.06
2022-12-03T10:17:30.257Z,98273.75
2022-12-03T10:20:03.047Z,98274.44
2022-12-03T10:22:36.961Z,98275.94
2022-12-03T10:25:10.969Z,98272.66
2022-12-03T10:27:41.304Z,98265.88
2022-12-03T10:30:19.687Z,98258.25
2022-12-03T10:32:51.292Z,98257.44
2022-12-03T10:35:26.011Z,98254.84
2022-12-03T10:38:03.508Z,98244.53
2022-12-03T10:40:36.191Z,98240.75
2022-12-03T10:43:23.430Z,98250.81
2022-12-03T10:46:13.325Z,98236.97
2022-12-03T10:48:41.908Z,98236.00
2022-12-03T10:51:21.440Z,98235.03
2022-12-03T10:53:52.547Z,98242.13
2022-12-03T10:56:26.588Z,98225.81
2022-12-03T10:58:56.634Z,98228.28
2022-12-03T11:01:28.113Z,98225.00
2022-12-03T11:04:04.588Z,98226.63
2022-12-03T11:06:34.559Z,98229.34
2022-12-03T11:09:08.849Z,98223.94
2022-12-03T11:11:39.883Z,98227.19
2022-12-03T11:14:11.698Z,98221.91
2022-12-03T11:17:11.235Z,98224.22
2022-12-03T11:19:50.363Z,98220.00
2022-12-03T11:22:46.981Z,98213.75
2022-12-03T11:25:50.914Z,98210.34
2022-12-03T11:28:38.277Z,98217.41
2022-12-03T11:31:15.297Z,98210.34
2022-12-03T11:33:44.793Z,98205.06
2022-12-03T11:36:31.536Z,98209.81
2022-12-03T11:39:03.941Z,98203.28
2022-12-03T11:41:35.816Z,98204.13
2022-12-03T11:44:33.796Z,98207.34
2022-12-03T11:47:15.938Z,98194.31
2022-12-03T11:49:51.512Z,98192.41
2022-12-03T11:52:30.008Z,98190.38
2022-12-03T11:55:06.763Z,98186.88
2022-12-03T11:57:39.838Z,98182.38
2022-12-03T12:00:22.630Z,98178.41
2022-12-03T12:02:53.489Z,98181.94
2022-12-03T12:05:28.101Z,98179.13
2022-12-03T12:07:58.598Z,98178.03
2022-12-03T12:10:48.897Z,98162.81
2022-12-03T12:13:52.092Z,98165.66
2022-12-03T12:16:51.364Z,98166.72
2022-12-03T12:19:38.133Z,98172.72
2022-12-03T12:22:36.286Z,98162.81
2022-12-03T12:25:27.180Z,98153.97
2022-12-03T12:27:58.215Z,98157.09
2022-12-03T12:30:27.696Z,98151.78
2022-12-03T12:33:13.628Z,98149.75
2022-12-03T12:35:43.941Z,98143.78
2022-12-03T12:38:19.433Z,98143.53
2022-12-03T12:40:51.568Z,98140.66
2022-12-03T12:43:27.768Z,98129.94
2022-12-03T12:46:18.526Z,98135.63
2022-12-03T12:48:52.530Z,98135.38
2022-12-03T12:51:24.274Z,98131.97
2022-12-03T12:53:53.631Z,98134.09
2022-12-03T12:56:26.744Z,98134.94
2022-12-03T12:59:00.374Z,98139.69
2022-12-03T13:01:32.269Z,98138.75
2022-12-03T13:04:02.291Z,98139.69
2022-12-03T13:06:33.517Z,98133.44
2022-12-03T13:09:03.547Z,98132.59
2022-12-03T13:11:41.386Z,98127.44
2022-12-03T13:14:18.744Z,98130.03
2022-12-03T13:16:50.158Z,98132.47
2022-12-03T13:19:27.047Z,98120.38
2022-12-03T13:21:58.070Z,98117.09
2022-12-03T13:24:39.473Z,98114.97
2022-12-03T13:27:26.846Z,98110.47
2022-12-03T13:30:02.535Z,98113.88
2022-12-03T13:32:35.788Z,98113.75
2022-12-03T13:35:12.900Z,98114.69
2022-12-03T13:37:42.587Z,98111.56
2022-12-03T13:40:25.619Z,98112.22
2022-12-03T13:42:54.999Z,98101.22
2022-12-03T13:45:36.485Z,98106.41
2022-12-03T13:48:20.047Z,98108.56
2022-12-03T13:50:49.587Z,98108.28
2022-12-03T13:53:24.534Z,98096.19
2022-12-03T13:56:05.114Z,98095.38
2022-12-03T13:58:34.663Z,98093.75
2022-12-03T14:01:05.681Z,98091.28
2022-12-03T14:03:34.946Z,98086.81
2022-12-03T14:06:03.972Z,98100.53
2022-12-03T14:08:34.142Z,98093.75
2022-12-03T14:11:03.758Z,98092.63
2022-12-03T14:13:33.434Z,98086.81
2022-12-03T14:16:02.468Z,98092.78
2022-12-03T14:18:33.943Z,98088.84
2022-12-03T14:21:03.952Z,98093.06
2022-12-03T14:23:33.834Z,98092.91
2022-12-03T14:26:04.081Z,98091.16
2022-12-03T14:28:34.631Z,98087.47
2022-12-03T14:31:03.589Z,98092.63
2022-12-03T14:33:33.428Z,98099.44
2022-12-03T14:36:02.872Z,98099.56
2022-12-03T14:38:33.212Z,98094.41
2022-12-03T14:41:02.464Z,98098.50
2022-12-03T14:43:31.016Z,98098.78
2022-12-03T14:46:01.611Z,98100.81
2022-12-03T14:48:30.968Z,98105.28
2022-12-03T14:51:01.284Z,98104.47
2022-12-03T14:53:30.998Z,98101.34
2022-12-03T14:56:00.734Z,98099.88
2022-12-03T14:58:31.162Z,98094.72
2022-12-03T15:01:00.560Z,98091.84
2022-12-03T15:03:30.500Z,98086.69
2022-12-03T15:06:01.755Z,98085.84
2022-12-03T15:08:31.966Z,98091.47
2022-12-03T15:11:01.322Z,98092.13
2022-12-03T15:13:31.333Z,98097.16
2022-12-03T15:16:00.536Z,98102.44
2022-12-03T15:18:30.811Z,98093.75
2022-12-03T15:21:02.621Z,98092.66
2022-12-03T15:23:32.557Z,98095.53
2022-12-03T15:26:02.005Z,98088.88
2022-12-03T15:28:31.359Z,98098.22
2022-12-03T15:31:00.864Z,98097.56
2022-12-03T15:33:30.502Z,98098.94
2022-12-03T15:36:03.299Z,98098.94
2022-12-03T15:38:32.159Z,98100.69
2022-12-03T15:41:20.681Z,98091.19
2022-12-03T15:43:50.235Z,98100.81
2022-12-03T15:46:19.482Z,98092.28
2022-12-03T15:48:48.679Z,98090.47
2022-12-03T15:51:18.760Z,98090.34
2022-12-03T15:53:47.301Z,98098.22
2022-12-03T15:56:15.887Z,98097.28
2022-12-03T15:58:45.220Z,98092.13
2022-12-03T16:01:15.009Z,98094.59
2022-12-03T16:03:44.577Z,98102.16
2022-12-03T16:06:14.802Z,98099.88
2022-12-03T16:08:45.309Z,98098.38
2022-12-03T16:11:15.049Z,98097.44
2022-12-03T16:13:44.321Z,98105.84
2022-12-03T16:16:13.971Z,98097.28
2022-12-03T16:18:42.857Z,98094.03
2022-12-03T16:21:11.514Z,98098.66
2022-12-03T16:23:40.985Z,98094.56
2022-12-03T16:26:11.852Z,98099.50
2022-12-03T16:28:40.548Z,98095.25
2022-12-03T16:31:10.574Z,98095.00
2022-12-03T16:33:39.783Z,98096.63
2022-12-03T16:36:10.968Z,98094.88
2022-12-03T16:38:40.895Z,98093.22
2022-12-03T16:41:11.217Z,98087.91
2022-12-03T16:43:40.303Z,98089.53
2022-12-03T16:46:25.970Z,98076.50
2022-12-03T16:48:57.888Z,98088.59
2022-12-03T16:51:28.707Z,98092.00
2022-12-03T16:53:58.108Z,98095.38
2022-12-03T16:56:29.691Z,98081.50
2022-12-03T16:58:58.094Z,98080.56
2022-12-03T17:01:27.575Z,98088.31
2022-12-03T17:03:57.096Z,98084.78
2022-12-03T17:06:26.353Z,98072.13
2022-12-03T17:08:55.233Z,98078.81
2022-12-03T17:11:24.608Z,98080.16
2022-12-03T17:13:55.340Z,98077.41
2022-12-03T17:16:24.539Z,98073.88
2022-12-03T17:18:54.360Z,98073.88
2022-12-03T17:21:24.120Z,98073.88
2022-12-03T17:23:53.784Z,98062.75
2022-12-03T17:26:23.075Z,98069.53
2022-12-03T17:28:51.524Z,98055.13
2022-12-03T17:31:21.866Z,98064.78
2022-12-03T17:33:52.703Z,98055.41
2022-12-03T17:36:21.729Z,98063.03
2022-12-03T17:38:51.279Z,98062.75
2022-12-03T17:41:20.239Z,98061.91
2022-12-03T17:43:49.919Z,98059.22
2022-12-03T17:46:19.927Z,98060.03
2022-12-03T17:48:50.964Z,98062.75
2022-12-03T17:51:21.360Z,98064.78
2022-12-03T17:53:51.818Z,98056.91
2022-12-03T17:56:20.980Z,98051.75
2022-12-03T17:58:50.384Z,98043.72
2022-12-03T18:01:19.484Z,98049.41
2022-12-03T18:03:49.853Z,98050.53
2022-12-03T18:06:19.985Z,98046.72
2022-12-03T18:08:49.087Z,98050.94
2022-12-03T18:11:18.102Z,98045.75
2022-12-03T18:13:46.561Z,98038.97
2022-12-03T18:16:16.707Z,98035.03
2022-12-03T18:18:46.266Z,98039.25
2022-12-03T18:21:16.876Z,98041.81
2022-12-03T18:23:46.503Z,98045.63
2022-12-03T18:26:15.293Z,98044.28
2022-12-03T18:28:45.060Z,98042.38
2022-12-03T18:31:18.383Z,98039.81
2022-12-03T18:33:47.720Z,98049.16
2022-12-03T18:36:22.848Z,98048.88
2022-12-03T18:38:55.312Z,98042.94
2022-12-03T18:41:26.092Z,98033.38
2022-12-03T18:43:55.163Z,98036.94
2022-12-03T18:46:51.927Z,98032.19
2022-12-03T18:49:14.321Z,98042.38
2022-12-03T18:51:45.303Z,98028.78
2022-12-03T18:54:15.447Z,98033.94
2022-12-03T18:56:45.451Z,98029.47
2022-12-03T18:59:14.945Z,98022.69
2022-12-03T19:01:45.026Z,98021.56
2022-12-03T19:04:15.033Z,98027.03
2022-12-03T19:06:45.959Z,98022.56
2022-12-03T19:09:14.855Z,98026.91
2022-12-03T19:11:43.820Z,98019.00
2022-12-03T19:14:13.508Z,98019.69
2022-12-03T19:16:44.534Z,98021.28
2022-12-03T19:19:14.610Z,98009.47
2022-12-03T19:21:45.165Z,98013.00
2022-12-03T19:24:30.597Z,98014.94
2022-12-03T19:27:00.135Z,98008.66
2022-12-03T19:29:28.629Z,98013.00
2022-12-03T19:31:57.098Z,98012.88
2022-12-03T19:34:26.966Z,98008.81
2022-12-03T19:36:57.461Z,98006.78
2022-12-03T19:39:26.475Z,98009.63
2022-12-03T19:41:56.027Z,98009.75
2022-12-03T19:44:25.043Z,98007.19
2022-12-03T19:46:54.481Z,98006.66
2022-12-03T19:49:24.035Z,98001.34
2022-12-03T19:51:53.338Z,98001.34
2022-12-03T19:54:24.397Z,98002.69
2022-12-03T19:56:53.811Z,98005.94
2022-12-03T19:59:23.636Z,97993.84
2022-12-03T20:01:54.261Z,98001.06
2022-12-03T20:04:22.789Z,97997.50
2022-12-03T20:06:51.776Z,97990.06
2022-12-03T20:09:23.581Z,98001.91
2022-12-03T20:11:53.873Z,98002.16
2022-12-03T20:14:23.238Z,98002.84
2022-12-03T20:16:52.848Z,98007.84
2022-12-03T20:19:22.479Z,98013.00
2022-12-03T20:21:51.642Z,98016.56
2022-12-03T20:24:22.501Z,98013.00
2022-12-03T20:26:51.079Z,98017.38
2022-12-03T20:29:19.499Z,98018.16
2022-12-03T20:31:48.910Z,98016.56
2022-12-03T20:34:17.794Z,98017.09
2022-12-03T20:36:47.353Z,98013.56
2022-12-03T20:39:17.838Z,98017.78
2022-12-03T20:41:49.311Z,98019.56
2022-12-03T20:44:18.762Z,98016.16
2022-12-03T20:46:48.133Z,98015.78
2022-12-03T20:49:17.513Z,98023.66
2022-12-03T20:51:45.964Z,98016.03
2022-12-03T20:54:15.947Z,98006.41
2022-12-03T20:56:44.979Z,98013.31
2022-12-03T20:59:17.969Z,98004.63
2022-12-03T21:01:47.000Z,98000.81
2022-12-03T21:04:18.187Z,98000.00
2022-12-03T21:06:47.650Z,97992.91
2022-12-03T21:09:16.091Z,97996.44
2022-12-03T21:11:45.465Z,97987.75
2022-12-03T21:14:16.398Z,97988.44
2022-12-03T21:17:19.267Z,97980.94
2022-12-03T21:19:39.148Z,97981.25
2022-12-03T21:22:08.678Z,97976.06
2022-12-03T21:24:38.261Z,97977.19
2022-12-03T21:27:08.199Z,97984.78
2022-12-03T21:29:39.679Z,97980.56
2022-12-03T21:32:09.531Z,97983.97
2022-12-03T21:34:37.987Z,97981.25
2022-12-03T21:37:07.052Z,97985.34
2022-12-03T21:39:37.546Z,97986.28
2022-12-03T21:42:35.069Z,97979.06
2022-12-03T21:44:56.153Z,97979.88
2022-12-03T21:47:25.752Z,97979.59
2022-12-03T21:49:55.397Z,97983.00
2022-12-03T21:52:24.490Z,97976.19
2022-12-03T21:54:54.603Z,97977.31
2022-12-03T21:57:24.250Z,97972.53
2022-12-03T21:59:53.112Z,97979.88
2022-12-03T22:02:24.425Z,97985.88
2022-12-03T22:04:55.024Z,97986.00
2022-12-03T22:07:24.978Z,97976.91
2022-12-03T22:09:54.567Z,97976.75
2022-12-03T22:12:24.317Z,97972.53
2022-12-03T22:14:57.103Z,97974.31
2022-12-03T22:17:28.449Z,97980.41
2022-12-03T22:19:57.168Z,97976.75
2022-12-03T22:22:26.119Z,97979.63
2022-12-03T22:24:54.494Z,97972.97
2022-12-03T22:27:23.347Z,97973.13
2022-12-03T22:29:54.186Z,97967.97
2022-12-03T22:32:23.860Z,97972.28
2022-12-03T22:34:54.908Z,97960.50
2022-12-03T22:37:25.102Z,97971.59
2022-12-03T22:39:55.444Z,97965.66
2022-12-03T22:42:25.477Z,97970.94
2022-12-03T22:44:54.486Z,97969.19
2022-12-03T22:47:23.469Z,97969.59
2022-12-03T22:49:54.089Z,97973.28
2022-12-03T22:52:23.884Z,97981.97
2022-12-03T22:54:53.313Z,97968.94
2022-12-03T22:57:22.770Z,97963.63
2022-12-03T22:59:52.450Z,97961.19
2022-12-03T23:02:22.375Z,97964.59
2022-12-03T23:04:57.313Z,97956.03
2022-12-03T23:07:26.282Z,97951.69
2022-12-03T23:09:56.435Z,97943.78
2022-12-03T23:12:26.100Z,97931.41
2022-12-03T23:14:55.833Z,97928.00
2022-12-03T23:17:26.280Z,97925.88
2022-12-03T23:19:57.903Z,97925.59
2022-12-03T23:22:27.941Z,97922.03
2022-12-03T23:24:57.336Z,97926.53
2022-12-03T23:27:26.843Z,97921.50
2022-12-03T23:29:55.983Z,97924.53
2022-12-03T23:32:25.119Z,97916.78
2022-12-03T23:34:56.670Z,97912.56
2022-12-03T23:37:27.248Z,97919.94
2022-12-03T23:39:57.338Z,97916.66
2022-12-03T23:42:26.988Z,97903.91
2022-12-03T23:44:56.499Z,97902.09
2022-12-03T23:47:26.521Z,97904.69
2022-12-03T23:49:56.453Z,97914.22
2022-12-03T23:52:25.685Z,97917.59
2022-12-03T23:54:55.026Z,97913.41
2022-12-03T23:57:24.030Z,97919.22
2022-12-03T23:59:54.267Z,97912.03
